sensor_id;sensor_type;location;lat;lon;timestamp;pressure;altitude;pressure_sealevel;temperature;humidity
24336;BME280;33098;52.400;16.880;2023-03-14T00:01:58;98762.95;;;12.18;92.31
24336;BME280;33098;52.400;16.880;2023-03-14T00:04:25;98759.35;;;12.19;92.10
24336;BME280;33098;52.400;16.880;2023-03-14T00:06:51;98759.36;;;12.19;91.98
24336;BME280;33098;52.400;16.880;2023-03-14T00:09:17;98753.25;;;12.19;92.16
24336;BME280;33098;52.400;16.880;2023-03-14T00:11:44;98757.34;;;12.22;92.34
24336;BME280;33098;52.400;16.880;2023-03-14T00:14:10;98758.73;;;12.21;92.00
24336;BME280;33098;52.400;16.880;2023-03-14T00:16:37;98757.98;;;12.20;92.21
24336;BME280;33098;52.400;16.880;2023-03-14T00:19:04;98759.56;;;12.17;92.15
24336;BME280;33098;52.400;16.880;2023-03-14T00:21:31;98756.56;;;12.15;92.49
24336;BME280;33098;52.400;16.880;2023-03-14T00:23:57;98751.23;;;12.14;92.59
24336;BME280;33098;52.400;16.880;2023-03-14T00:26:23;98748.20;;;12.14;92.99
24336;BME280;33098;52.400;16.880;2023-03-14T00:28:51;98743.61;;;12.13;93.09
24336;BME280;33098;52.400;16.880;2023-03-14T00:31:18;98733.99;;;12.12;93.32
24336;BME280;33098;52.400;16.880;2023-03-14T00:33:45;98732.07;;;12.13;93.35
24336;BME280;33098;52.400;16.880;2023-03-14T00:36:12;98735.09;;;12.15;93.68
24336;BME280;33098;52.400;16.880;2023-03-14T00:38:40;98728.05;;;12.16;93.95
24336;BME280;33098;52.400;16.880;2023-03-14T00:41:07;98727.58;;;12.14;94.03
24336;BME280;33098;52.400;16.880;2023-03-14T00:43:34;98722.14;;;12.13;94.22
24336;BME280;33098;52.400;16.880;2023-03-14T00:46:00;98718.04;;;12.13;94.44
24336;BME280;33098;52.400;16.880;2023-03-14T00:48:27;98708.86;;;12.14;94.67
24336;BME280;33098;52.400;16.880;2023-03-14T00:50:53;98710.17;;;12.15;94.98
24336;BME280;33098;52.400;16.880;2023-03-14T00:53:20;98702.84;;;12.15;95.13
24336;BME280;33098;52.400;16.880;2023-03-14T00:55:47;98704.00;;;12.18;95.49
24336;BME280;33098;52.400;16.880;2023-03-14T00:58:14;98704.04;;;12.19;95.68
24336;BME280;33098;52.400;16.880;2023-03-14T01:00:41;98702.11;;;12.22;96.11
24336;BME280;33098;52.400;16.880;2023-03-14T01:03:08;98698.84;;;12.24;96.36
24336;BME280;33098;52.400;16.880;2023-03-14T01:05:35;98694.65;;;12.26;96.52
24336;BME280;33098;52.400;16.880;2023-03-14T01:08:02;98698.02;;;12.29;97.06
24336;BME280;33098;52.400;16.880;2023-03-14T01:10:28;98683.30;;;12.26;97.68
24336;BME280;33098;52.400;16.880;2023-03-14T01:12:55;98690.23;;;12.24;98.85
24336;BME280;33098;52.400;16.880;2023-03-14T01:15:21;98686.06;;;12.21;99.86
24336;BME280;33098;52.400;16.880;2023-03-14T01:17:48;98675.23;;;12.17;100.00
24336;BME280;33098;52.400;16.880;2023-03-14T01:20:16;98670.98;;;12.16;100.00
24336;BME280;33098;52.400;16.880;2023-03-14T01:22:43;98660.44;;;12.14;100.00
24336;BME280;33098;52.400;16.880;2023-03-14T01:25:12;98650.71;;;12.13;100.00
24336;BME280;33098;52.400;16.880;2023-03-14T01:27:39;98645.23;;;12.14;100.00
24336;BME280;33098;52.400;16.880;2023-03-14T01:30:06;98631.94;;;12.15;100.00
24336;BME280;33098;52.400;16.880;2023-03-14T01:32:34;98622.35;;;12.16;100.00
24336;BME280;33098;52.400;16.880;2023-03-14T01:35:01;98615.75;;;12.18;100.00
24336;BME280;33098;52.400;16.880;2023-03-14T01:37:27;98614.80;;;12.18;100.00
24336;BME280;33098;52.400;16.880;2023-03-14T01:39:54;98598.44;;;12.17;100.00
24336;BME280;33098;52.400;16.880;2023-03-14T01:42:21;98587.64;;;12.17;100.00
24336;BME280;33098;52.400;16.880;2023-03-14T01:44:48;98580.33;;;12.18;100.00
24336;BME280;33098;52.400;16.880;2023-03-14T01:47:15;98572.73;;;12.18;100.00
24336;BME280;33098;52.400;16.880;2023-03-14T01:49:42;98576.89;;;12.17;100.00
24336;BME280;33098;52.400;16.880;2023-03-14T01:52:11;98576.08;;;12.17;100.00
24336;BME280;33098;52.400;16.880;2023-03-14T01:54:43;98567.80;;;12.19;100.00
24336;BME280;33098;52.400;16.880;2023-03-14T01:57:23;98580.52;;;12.20;100.00
24336;BME280;33098;52.400;16.880;2023-03-14T01:59:52;98598.25;;;12.20;100.00
24336;BME280;33098;52.400;16.880;2023-03-14T02:02:20;98582.34;;;12.21;100.00
24336;BME280;33098;52.400;16.880;2023-03-14T02:04:47;98556.88;;;12.20;100.00
24336;BME280;33098;52.400;16.880;2023-03-14T02:09:50;98564.14;;;12.20;100.00
24336;BME280;33098;52.400;16.880;2023-03-14T02:12:22;98576.30;;;12.18;100.00
24336;BME280;33098;52.400;16.880;2023-03-14T02:15:04;98583.41;;;12.16;100.00
24336;BME280;33098;52.400;16.880;2023-03-14T02:17:53;98592.88;;;12.14;100.00
24336;BME280;33098;52.400;16.880;2023-03-14T02:20:56;98594.43;;;12.13;100.00
24336;BME280;33098;52.400;16.880;2023-03-14T02:26:24;98603.33;;;12.08;100.00
24336;BME280;33098;52.400;16.880;2023-03-14T02:28:52;98604.75;;;12.04;100.00
24336;BME280;33098;52.400;16.880;2023-03-14T02:31:20;98599.96;;;12.01;100.00
24336;BME280;33098;52.400;16.880;2023-03-14T02:33:49;98594.04;;;12.01;100.00
24336;BME280;33098;52.400;16.880;2023-03-14T02:36:15;98585.02;;;11.98;100.00
24336;BME280;33098;52.400;16.880;2023-03-14T02:41:29;98590.32;;;11.94;100.00
24336;BME280;33098;52.400;16.880;2023-03-14T02:44:02;98594.13;;;11.90;100.00
24336;BME280;33098;52.400;16.880;2023-03-14T02:46:28;98594.25;;;11.86;100.00
24336;BME280;33098;52.400;16.880;2023-03-14T02:49:00;98594.91;;;11.88;100.00
24336;BME280;33098;52.400;16.880;2023-03-14T02:51:29;98589.60;;;11.88;100.00
24336;BME280;33098;52.400;16.880;2023-03-14T02:53:55;98587.86;;;11.85;100.00
24336;BME280;33098;52.400;16.880;2023-03-14T02:56:22;98585.69;;;11.80;100.00
24336;BME280;33098;52.400;16.880;2023-03-14T02:58:49;98584.52;;;11.80;100.00
24336;BME280;33098;52.400;16.880;2023-03-14T03:01:30;98597.90;;;11.82;100.00
24336;BME280;33098;52.400;16.880;2023-03-14T03:03:56;98601.69;;;11.85;100.00
24336;BME280;33098;52.400;16.880;2023-03-14T03:06:23;98601.83;;;11.84;100.00
24336;BME280;33098;52.400;16.880;2023-03-14T03:08:49;98599.04;;;11.82;100.00
24336;BME280;33098;52.400;16.880;2023-03-14T03:11:16;98598.34;;;11.80;100.00
24336;BME280;33098;52.400;16.880;2023-03-14T03:13:42;98594.88;;;11.73;100.00
24336;BME280;33098;52.400;16.880;2023-03-14T03:16:09;98585.97;;;11.68;100.00
24336;BME280;33098;52.400;16.880;2023-03-14T03:18:35;98583.27;;;11.67;100.00
24336;BME280;33098;52.400;16.880;2023-03-14T03:21:03;98588.62;;;11.65;100.00
24336;BME280;33098;52.400;16.880;2023-03-14T03:23:30;98592.20;;;11.60;100.00
24336;BME280;33098;52.400;16.880;2023-03-14T03:25:57;98598.20;;;11.57;100.00
24336;BME280;33098;52.400;16.880;2023-03-14T03:28:24;98591.92;;;11.55;100.00
24336;BME280;33098;52.400;16.880;2023-03-14T03:30:50;98580.08;;;11.54;100.00
24336;BME280;33098;52.400;16.880;2023-03-14T03:33:17;98566.00;;;11.50;100.00
24336;BME280;33098;52.400;16.880;2023-03-14T03:35:48;98554.95;;;11.42;100.00
24336;BME280;33098;52.400;16.880;2023-03-14T03:38:17;98550.48;;;11.36;100.00
24336;BME280;33098;52.400;16.880;2023-03-14T03:40:45;98560.52;;;11.32;100.00
24336;BME280;33098;52.400;16.880;2023-03-14T03:43:11;98559.55;;;11.28;100.00
24336;BME280;33098;52.400;16.880;2023-03-14T03:45:39;98552.09;;;11.28;100.00
24336;BME280;33098;52.400;16.880;2023-03-14T03:48:06;98540.95;;;11.27;100.00
24336;BME280;33098;52.400;16.880;2023-03-14T03:50:32;98538.25;;;11.26;100.00
24336;BME280;33098;52.400;16.880;2023-03-14T03:52:59;98527.29;;;11.26;100.00
24336;BME280;33098;52.400;16.880;2023-03-14T03:55:25;98527.60;;;11.26;100.00
24336;BME280;33098;52.400;16.880;2023-03-14T03:57:54;98520.06;;;11.22;100.00
24336;BME280;33098;52.400;16.880;2023-03-14T04:00:20;98511.12;;;11.18;100.00
24336;BME280;33098;52.400;16.880;2023-03-14T04:02:47;98506.70;;;11.15;100.00
24336;BME280;33098;52.400;16.880;2023-03-14T04:05:16;98503.49;;;11.08;100.00
24336;BME280;33098;52.400;16.880;2023-03-14T04:07:51;98502.27;;;11.10;100.00
24336;BME280;33098;52.400;16.880;2023-03-14T04:10:23;98508.61;;;11.02;100.00
24336;BME280;33098;52.400;16.880;2023-03-14T04:13:03;98507.95;;;10.97;100.00
24336;BME280;33098;52.400;16.880;2023-03-14T04:15:32;98500.86;;;10.90;100.00
24336;BME280;33098;52.400;16.880;2023-03-14T04:18:02;98507.05;;;10.81;100.00
24336;BME280;33098;52.400;16.880;2023-03-14T04:20:30;98507.82;;;10.71;100.00
24336;BME280;33098;52.400;16.880;2023-03-14T04:22:56;98517.23;;;10.66;100.00
24336;BME280;33098;52.400;16.880;2023-03-14T04:25:23;98510.45;;;10.57;100.00
24336;BME280;33098;52.400;16.880;2023-03-14T04:27:54;98500.41;;;10.47;100.00
24336;BME280;33098;52.400;16.880;2023-03-14T04:30:24;98518.63;;;10.46;100.00
24336;BME280;33098;52.400;16.880;2023-03-14T04:32:57;98522.25;;;10.42;100.00
24336;BME280;33098;52.400;16.880;2023-03-14T04:35:26;98517.44;;;10.38;100.00
24336;BME280;33098;52.400;16.880;2023-03-14T04:37:56;98506.64;;;10.27;100.00
24336;BME280;33098;52.400;16.880;2023-03-14T04:40:23;98494.91;;;10.21;100.00
24336;BME280;33098;52.400;16.880;2023-03-14T04:42:53;98491.42;;;10.12;100.00
24336;BME280;33098;52.400;16.880;2023-03-14T04:45:20;98486.92;;;10.06;100.00
24336;BME280;33098;52.400;16.880;2023-03-14T04:47:46;98480.94;;;10.09;100.00
24336;BME280;33098;52.400;16.880;2023-03-14T04:50:17;98479.29;;;10.11;100.00
24336;BME280;33098;52.400;16.880;2023-03-14T04:52:43;98471.94;;;10.06;100.00
24336;BME280;33098;52.400;16.880;2023-03-14T04:55:10;98466.79;;;10.07;100.00
24336;BME280;33098;52.400;16.880;2023-03-14T04:57:36;98475.10;;;10.09;100.00
24336;BME280;33098;52.400;16.880;2023-03-14T05:00:03;98476.39;;;10.04;100.00
24336;BME280;33098;52.400;16.880;2023-03-14T05:03:08;98471.77;;;10.01;100.00
24336;BME280;33098;52.400;16.880;2023-03-14T05:05:45;98474.34;;;10.00;100.00
24336;BME280;33098;52.400;16.880;2023-03-14T05:08:31;98480.64;;;9.97;100.00
24336;BME280;33098;52.400;16.880;2023-03-14T05:11:16;98490.17;;;9.99;100.00
24336;BME280;33098;52.400;16.880;2023-03-14T05:14:04;98480.52;;;9.91;100.00
24336;BME280;33098;52.400;16.880;2023-03-14T05:16:43;98494.33;;;9.87;100.00
24336;BME280;33098;52.400;16.880;2023-03-14T05:19:18;98499.70;;;9.81;100.00
24336;BME280;33098;52.400;16.880;2023-03-14T05:22:03;98499.73;;;9.73;100.00
24336;BME280;33098;52.400;16.880;2023-03-14T05:24:48;98503.85;;;9.67;100.00
24336;BME280;33098;52.400;16.880;2023-03-14T05:27:36;98495.45;;;9.61;100.00
24336;BME280;33098;52.400;16.880;2023-03-14T05:30:31;98485.95;;;9.60;100.00
24336;BME280;33098;52.400;16.880;2023-03-14T05:33:24;98492.34;;;9.60;100.00
24336;BME280;33098;52.400;16.880;2023-03-14T05:36:11;98487.83;;;9.61;100.00
24336;BME280;33098;52.400;16.880;2023-03-14T05:39:02;98494.02;;;9.68;100.00
24336;BME280;33098;52.400;16.880;2023-03-14T05:41:39;98496.83;;;9.71;100.00
24336;BME280;33098;52.400;16.880;2023-03-14T05:44:44;98493.73;;;9.75;100.00
24336;BME280;33098;52.400;16.880;2023-03-14T05:47:44;98485.57;;;9.77;100.00
24336;BME280;33098;52.400;16.880;2023-03-14T05:50:30;98482.45;;;9.78;100.00
24336;BME280;33098;52.400;16.880;2023-03-14T05:53:31;98481.06;;;9.81;100.00
24336;BME280;33098;52.400;16.880;2023-03-14T05:56:22;98479.86;;;9.86;100.00
24336;BME280;33098;52.400;16.880;2023-03-14T05:59:18;98485.09;;;9.92;100.00
24336;BME280;33098;52.400;16.880;2023-03-14T06:02:03;98485.07;;;10.01;100.00
24336;BME280;33098;52.400;16.880;2023-03-14T06:04:35;98486.63;;;10.01;100.00
24336;BME280;33098;52.400;16.880;2023-03-14T06:07:02;98488.79;;;10.06;100.00
24336;BME280;33098;52.400;16.880;2023-03-14T06:09:28;98488.09;;;10.07;100.00
24336;BME280;33098;52.400;16.880;2023-03-14T06:11:57;98485.20;;;10.08;100.00
24336;BME280;33098;52.400;16.880;2023-03-14T06:14:23;98496.42;;;10.05;100.00
24336;BME280;33098;52.400;16.880;2023-03-14T06:16:51;98488.48;;;10.05;100.00
24336;BME280;33098;52.400;16.880;2023-03-14T06:19:19;98491.75;;;10.06;100.00
24336;BME280;33098;52.400;16.880;2023-03-14T06:21:46;98498.83;;;10.08;100.00
24336;BME280;33098;52.400;16.880;2023-03-14T06:24:12;98493.27;;;10.13;100.00
24336;BME280;33098;52.400;16.880;2023-03-14T06:26:42;98493.55;;;10.16;100.00
24336;BME280;33098;52.400;16.880;2023-03-14T06:29:09;98504.35;;;10.17;100.00
24336;BME280;33098;52.400;16.880;2023-03-14T06:31:36;98505.14;;;10.22;100.00
24336;BME280;33098;52.400;16.880;2023-03-14T06:34:04;98499.09;;;10.26;100.00
24336;BME280;33098;52.400;16.880;2023-03-14T06:36:31;98500.75;;;10.33;100.00
24336;BME280;33098;52.400;16.880;2023-03-14T06:38:58;98495.83;;;10.38;100.00
24336;BME280;33098;52.400;16.880;2023-03-14T06:41:25;98489.05;;;10.41;100.00
24336;BME280;33098;52.400;16.880;2023-03-14T06:43:52;98488.80;;;10.47;100.00
24336;BME280;33098;52.400;16.880;2023-03-14T06:46:19;98489.23;;;10.53;100.00
24336;BME280;33098;52.400;16.880;2023-03-14T06:48:46;98486.79;;;10.57;100.00
24336;BME280;33098;52.400;16.880;2023-03-14T06:51:12;98489.44;;;10.58;100.00
24336;BME280;33098;52.400;16.880;2023-03-14T06:53:39;98484.55;;;10.61;99.98
24336;BME280;33098;52.400;16.880;2023-03-14T06:56:06;98480.46;;;10.63;99.96
24336;BME280;33098;52.400;16.880;2023-03-14T06:58:33;98483.38;;;10.66;99.85
24336;BME280;33098;52.400;16.880;2023-03-14T07:00:59;98492.14;;;10.67;99.68
24336;BME280;33098;52.400;16.880;2023-03-14T07:03:30;98484.02;;;10.70;99.81
24336;BME280;33098;52.400;16.880;2023-03-14T07:05:59;98480.92;;;10.73;99.58
24336;BME280;33098;52.400;16.880;2023-03-14T07:08:25;98479.13;;;10.78;99.72
24336;BME280;33098;52.400;16.880;2023-03-14T07:10:52;98470.56;;;10.84;99.73
24336;BME280;33098;52.400;16.880;2023-03-14T07:13:18;98472.21;;;10.86;99.45
24336;BME280;33098;52.400;16.880;2023-03-14T07:15:53;98470.64;;;10.89;99.51
24336;BME280;33098;52.400;16.880;2023-03-14T07:18:20;98465.86;;;10.97;99.68
24336;BME280;33098;52.400;16.880;2023-03-14T07:20:46;98473.48;;;11.01;99.66
24336;BME280;33098;52.400;16.880;2023-03-14T07:23:13;98474.71;;;11.07;99.65
24336;BME280;33098;52.400;16.880;2023-03-14T07:25:44;98469.45;;;11.11;99.52
24336;BME280;33098;52.400;16.880;2023-03-14T07:28:11;98464.29;;;11.14;99.35
24336;BME280;33098;52.400;16.880;2023-03-14T07:30:39;98468.63;;;11.20;99.45
24336;BME280;33098;52.400;16.880;2023-03-14T07:33:11;98464.73;;;11.25;99.31
24336;BME280;33098;52.400;16.880;2023-03-14T07:35:37;98463.36;;;11.27;99.10
24336;BME280;33098;52.400;16.880;2023-03-14T07:38:04;98461.25;;;11.31;98.79
24336;BME280;33098;52.400;16.880;2023-03-14T07:40:34;98462.14;;;11.34;98.70
24336;BME280;33098;52.400;16.880;2023-03-14T07:43:02;98460.00;;;11.35;98.54
24336;BME280;33098;52.400;16.880;2023-03-14T07:45:40;98462.47;;;11.39;98.47
24336;BME280;33098;52.400;16.880;2023-03-14T07:48:06;98468.36;;;11.41;98.46
24336;BME280;33098;52.400;16.880;2023-03-14T07:50:33;98467.59;;;11.47;98.37
24336;BME280;33098;52.400;16.880;2023-03-14T07:52:59;98475.63;;;11.51;98.28
24336;BME280;33098;52.400;16.880;2023-03-14T07:55:25;98477.96;;;11.57;98.30
24336;BME280;33098;52.400;16.880;2023-03-14T07:57:52;98480.46;;;11.61;98.03
24336;BME280;33098;52.400;16.880;2023-03-14T08:00:18;98482.91;;;11.65;97.64
24336;BME280;33098;52.400;16.880;2023-03-14T08:02:45;98482.69;;;11.67;97.17
24336;BME280;33098;52.400;16.880;2023-03-14T08:05:12;98472.66;;;11.72;97.29
24336;BME280;33098;52.400;16.880;2023-03-14T08:07:38;98473.66;;;11.82;97.43
24336;BME280;33098;52.400;16.880;2023-03-14T08:10:05;98473.80;;;11.87;96.86
24336;BME280;33098;52.400;16.880;2023-03-14T08:12:31;98480.57;;;11.92;96.54
24336;BME280;33098;52.400;16.880;2023-03-14T08:14:58;98478.25;;;11.95;96.14
24336;BME280;33098;52.400;16.880;2023-03-14T08:17:26;98478.78;;;12.00;96.16
24336;BME280;33098;52.400;16.880;2023-03-14T08:19:52;98487.13;;;12.04;95.69
24336;BME280;33098;52.400;16.880;2023-03-14T08:22:19;98495.23;;;12.08;95.43
24336;BME280;33098;52.400;16.880;2023-03-14T08:24:45;98502.98;;;12.15;95.54
24336;BME280;33098;52.400;16.880;2023-03-14T08:27:11;98501.24;;;12.21;94.78
24336;BME280;33098;52.400;16.880;2023-03-14T08:29:40;98502.74;;;12.20;93.91
24336;BME280;33098;52.400;16.880;2023-03-14T08:32:08;98498.57;;;12.21;94.15
24336;BME280;33098;52.400;16.880;2023-03-14T08:34:34;98495.70;;;12.26;94.13
24336;BME280;33098;52.400;16.880;2023-03-14T08:37:01;98496.45;;;12.33;93.97
24336;BME280;33098;52.400;16.880;2023-03-14T08:39:27;98493.85;;;12.36;93.31
24336;BME280;33098;52.400;16.880;2023-03-14T08:41:54;98498.67;;;12.41;93.54
24336;BME280;33098;52.400;16.880;2023-03-14T08:44:20;98490.09;;;12.47;93.29
24336;BME280;33098;52.400;16.880;2023-03-14T08:46:46;98485.49;;;12.55;93.30
24336;BME280;33098;52.400;16.880;2023-03-14T08:49:13;98486.06;;;12.63;92.23
24336;BME280;33098;52.400;16.880;2023-03-14T08:51:40;98485.99;;;12.63;91.68
24336;BME280;33098;52.400;16.880;2023-03-14T08:54:09;98482.31;;;12.67;91.15
24336;BME280;33098;52.400;16.880;2023-03-14T08:56:36;98485.88;;;12.75;91.25
24336;BME280;33098;52.400;16.880;2023-03-14T08:59:04;98485.86;;;12.80;91.00
24336;BME280;33098;52.400;16.880;2023-03-14T09:01:31;98494.70;;;12.80;90.79
24336;BME280;33098;52.400;16.880;2023-03-14T09:03:57;98495.83;;;12.81;89.71
24336;BME280;33098;52.400;16.880;2023-03-14T09:06:24;98493.78;;;12.82;89.37
24336;BME280;33098;52.400;16.880;2023-03-14T09:08:50;98498.95;;;12.77;88.46
24336;BME280;33098;52.400;16.880;2023-03-14T09:11:17;98499.65;;;12.76;88.26
24336;BME280;33098;52.400;16.880;2023-03-14T09:13:44;98501.64;;;12.74;87.80
24336;BME280;33098;52.400;16.880;2023-03-14T09:16:11;98496.41;;;12.76;87.48
24336;BME280;33098;52.400;16.880;2023-03-14T09:18:37;98490.41;;;12.79;87.62
24336;BME280;33098;52.400;16.880;2023-03-14T09:21:04;98483.15;;;12.83;87.58
24336;BME280;33098;52.400;16.880;2023-03-14T09:23:30;98491.46;;;12.89;87.67
24336;BME280;33098;52.400;16.880;2023-03-14T09:25:57;98494.58;;;12.88;86.75
24336;BME280;33098;52.400;16.880;2023-03-14T09:28:24;98501.71;;;12.88;86.64
24336;BME280;33098;52.400;16.880;2023-03-14T09:30:51;98493.15;;;12.90;86.78
24336;BME280;33098;52.400;16.880;2023-03-14T09:33:17;98489.39;;;12.93;86.90
24336;BME280;33098;52.400;16.880;2023-03-14T09:35:44;98487.52;;;12.94;86.10
24336;BME280;33098;52.400;16.880;2023-03-14T09:38:11;98489.81;;;13.02;86.49
24336;BME280;33098;52.400;16.880;2023-03-14T09:40:38;98491.18;;;13.11;86.82
24336;BME280;33098;52.400;16.880;2023-03-14T09:43:05;98493.73;;;13.21;86.74
24336;BME280;33098;52.400;16.880;2023-03-14T09:45:32;98488.58;;;13.22;86.12
24336;BME280;33098;52.400;16.880;2023-03-14T09:47:59;98489.12;;;13.23;85.72
24336;BME280;33098;52.400;16.880;2023-03-14T09:50:30;98485.83;;;13.23;85.67
24336;BME280;33098;52.400;16.880;2023-03-14T09:52:59;98486.01;;;13.24;85.57
24336;BME280;33098;52.400;16.880;2023-03-14T09:55:27;98482.27;;;13.28;86.01
24336;BME280;33098;52.400;16.880;2023-03-14T09:57:56;98483.51;;;13.29;85.76
24336;BME280;33098;52.400;16.880;2023-03-14T10:00:25;98475.56;;;13.27;85.44
24336;BME280;33098;52.400;16.880;2023-03-14T10:02:56;98479.05;;;13.31;85.64
24336;BME280;33098;52.400;16.880;2023-03-14T10:05:24;98477.95;;;13.37;85.63
24336;BME280;33098;52.400;16.880;2023-03-14T10:07:50;98476.84;;;13.46;85.76
24336;BME280;33098;52.400;16.880;2023-03-14T10:10:21;98483.19;;;13.49;85.32
24336;BME280;33098;52.400;16.880;2023-03-14T10:12:54;98480.19;;;13.51;85.02
24336;BME280;33098;52.400;16.880;2023-03-14T10:15:30;98475.77;;;13.53;85.21
24336;BME280;33098;52.400;16.880;2023-03-14T10:17:58;98480.54;;;13.55;84.38
24336;BME280;33098;52.400;16.880;2023-03-14T10:20:29;98478.75;;;13.57;84.68
24336;BME280;33098;52.400;16.880;2023-03-14T10:23:06;98473.56;;;13.61;84.42
24336;BME280;33098;52.400;16.880;2023-03-14T10:25:58;98480.11;;;13.73;84.89
24336;BME280;33098;52.400;16.880;2023-03-14T10:28:27;98479.95;;;13.78;83.84
24336;BME280;33098;52.400;16.880;2023-03-14T10:30:55;98475.52;;;13.79;83.63
24336;BME280;33098;52.400;16.880;2023-03-14T10:33:26;98480.55;;;13.84;83.74
24336;BME280;33098;52.400;16.880;2023-03-14T10:36:03;98483.58;;;13.90;83.39
24336;BME280;33098;52.400;16.880;2023-03-14T10:38:33;98480.78;;;13.96;83.58
24336;BME280;33098;52.400;16.880;2023-03-14T10:41:01;98480.65;;;14.04;83.95
24336;BME280;33098;52.400;16.880;2023-03-14T10:43:31;98483.25;;;14.09;83.17
24336;BME280;33098;52.400;16.880;2023-03-14T10:46:16;98483.45;;;14.09;83.00
24336;BME280;33098;52.400;16.880;2023-03-14T10:49:04;98490.23;;;14.10;82.49
24336;BME280;33098;52.400;16.880;2023-03-14T10:51:30;98493.80;;;14.14;82.60
24336;BME280;33098;52.400;16.880;2023-03-14T10:54:11;98487.05;;;14.14;81.89
24336;BME280;33098;52.400;16.880;2023-03-14T10:56:38;98480.95;;;14.04;80.83
24336;BME280;33098;52.400;16.880;2023-03-14T10:59:11;98482.67;;;14.00;81.21
24336;BME280;33098;52.400;16.880;2023-03-14T11:09:25;98475.29;;;14.11;81.85
24336;BME280;33098;52.400;16.880;2023-03-14T11:11:55;98485.20;;;14.10;80.63
24336;BME280;33098;52.400;16.880;2023-03-14T11:14:30;98483.96;;;14.09;80.88
24336;BME280;33098;52.400;16.880;2023-03-14T11:17:16;98482.62;;;14.11;80.77
24336;BME280;33098;52.400;16.880;2023-03-14T11:22:37;98487.35;;;14.11;79.85
24336;BME280;33098;52.400;16.880;2023-03-14T11:25:12;98479.83;;;14.12;80.19
24336;BME280;33098;52.400;16.880;2023-03-14T11:27:47;98469.54;;;14.24;80.56
24336;BME280;33098;52.400;16.880;2023-03-14T11:30:19;98474.30;;;14.35;80.49
24336;BME280;33098;52.400;16.880;2023-03-14T11:32:55;98471.12;;;14.44;80.42
24336;BME280;33098;52.400;16.880;2023-03-14T11:35:26;98474.95;;;14.51;78.46
24336;BME280;33098;52.400;16.880;2023-03-14T11:38:09;98471.34;;;14.57;79.27
24336;BME280;33098;52.400;16.880;2023-03-14T11:40:37;98470.74;;;14.56;78.14
24336;BME280;33098;52.400;16.880;2023-03-14T11:45:35;98474.34;;;14.51;78.44
24336;BME280;33098;52.400;16.880;2023-03-14T11:50:48;98473.33;;;14.59;78.55
24336;BME280;33098;52.400;16.880;2023-03-14T11:53:18;98469.19;;;14.75;78.12
24336;BME280;33098;52.400;16.880;2023-03-14T11:55:46;98461.48;;;14.88;77.95
24336;BME280;33098;52.400;16.880;2023-03-14T11:58:26;98460.86;;;14.91;77.56
24336;BME280;33098;52.400;16.880;2023-03-14T12:00:54;98449.33;;;14.85;77.74
24336;BME280;33098;52.400;16.880;2023-03-14T12:03:24;98447.92;;;14.84;77.87
24336;BME280;33098;52.400;16.880;2023-03-14T12:11:10;98453.27;;;14.53;77.02
24336;BME280;33098;52.400;16.880;2023-03-14T12:13:39;98452.88;;;14.47;77.31
24336;BME280;33098;52.400;16.880;2023-03-14T12:16:07;98446.73;;;14.44;77.22
24336;BME280;33098;52.400;16.880;2023-03-14T12:18:45;98444.05;;;14.45;77.79
24336;BME280;33098;52.400;16.880;2023-03-14T12:21:12;98439.30;;;14.53;77.09
24336;BME280;33098;52.400;16.880;2023-03-14T12:28:39;98439.57;;;14.86;74.41
24336;BME280;33098;52.400;16.880;2023-03-14T12:34:01;98440.34;;;14.92;71.26
24336;BME280;33098;52.400;16.880;2023-03-14T12:36:48;98437.75;;;14.85;70.11
24336;BME280;33098;52.400;16.880;2023-03-14T12:39:31;98446.09;;;14.81;70.71
24336;BME280;33098;52.400;16.880;2023-03-14T12:42:20;98440.05;;;14.80;70.74
24336;BME280;33098;52.400;16.880;2023-03-14T12:44:48;98440.52;;;14.79;70.05
24336;BME280;33098;52.400;16.880;2023-03-14T12:49:45;98440.48;;;14.73;68.97
24336;BME280;33098;52.400;16.880;2023-03-14T12:52:16;98436.92;;;14.77;69.80
24336;BME280;33098;52.400;16.880;2023-03-14T13:00:00;98431.95;;;15.14;69.05
24336;BME280;33098;52.400;16.880;2023-03-14T13:02:42;98433.02;;;15.36;67.49
24336;BME280;33098;52.400;16.880;2023-03-14T13:05:10;98436.07;;;15.51;66.17
24336;BME280;33098;52.400;16.880;2023-03-14T13:10:23;98435.88;;;15.92;66.41
24336;BME280;33098;52.400;16.880;2023-03-14T13:15:39;98437.39;;;16.41;65.31
24336;BME280;33098;52.400;16.880;2023-03-14T13:18:10;98440.99;;;16.58;63.44
24336;BME280;33098;52.400;16.880;2023-03-14T13:20:38;98433.15;;;16.79;62.76
24336;BME280;33098;52.400;16.880;2023-03-14T13:23:30;98434.27;;;17.10;62.63
24336;BME280;33098;52.400;16.880;2023-03-14T13:25:54;98437.67;;;17.24;61.37
24336;BME280;33098;52.400;16.880;2023-03-14T13:28:22;98435.27;;;17.22;62.46
24336;BME280;33098;52.400;16.880;2023-03-14T13:30:58;98437.03;;;17.15;62.97
24336;BME280;33098;52.400;16.880;2023-03-14T13:33:24;98436.59;;;16.96;61.44
24336;BME280;33098;52.400;16.880;2023-03-14T13:35:58;98436.00;;;16.76;62.30
24336;BME280;33098;52.400;16.880;2023-03-14T13:38:26;98443.11;;;16.53;61.31
24336;BME280;33098;52.400;16.880;2023-03-14T13:40:54;98439.21;;;16.35;61.72
24336;BME280;33098;52.400;16.880;2023-03-14T13:43:29;98437.65;;;16.27;62.41
24336;BME280;33098;52.400;16.880;2023-03-14T13:46:07;98440.20;;;16.23;62.38
24336;BME280;33098;52.400;16.880;2023-03-14T13:48:42;98433.06;;;16.10;62.65
24336;BME280;33098;52.400;16.880;2023-03-14T13:51:10;98437.85;;;15.96;62.09
24336;BME280;33098;52.400;16.880;2023-03-14T13:53:44;98434.27;;;15.84;63.19